Yreka, CA (96097)

11:27 PM PDT on June 25, 2017 (GMT -0700)
Sierra Vista | | Change Station
Active Advisory: Fire Weather Warning

Elev 2743 ft 41.73 °N, 122.62 °W | Updated 19 seconds ago

Clear
Clear
68.9 °F
Feels Like 68.9 °F
N
0.0
Wind Variable Wind from SSE
Gusts 0.0 mph

Today
High -- | Low -- °F
--% Chance of Precip.
Yesterday
High -- | Low -- °F
Precip. -- in
Pressure 29.96 in
Visibility 10.0 miles
Clouds Clear
Dew Point 60 °F
Humidity 74%
Rainfall 0.69 in
Snow Depth Not available.
5:37 AM 8:49 PM
Waxing Crescent, 7% visible
METAR KSIY 260553Z AUTO 23003KT 10SM CLR 19/13 A3001 RMK AO2 SLP146 60004 T01890128 10294 20183 51005
Pressure 29.96 in
Visibility 10.0 miles
Clouds Clear
Dew Point 60 °F
Humidity 74%
Rainfall 0.69 in
Snow Depth Not available.
5:37 AM 8:49 PM
Waxing Crescent, 7% visible
METAR KSIY 260553Z AUTO 23003KT 10SM CLR 19/13 A3001 RMK AO2 SLP146 60004 T01890128 10294 20183 51005

Get Your Daily Forecast Email!

Thanks for signing up!

Be on the lookout for a verification email in your inbox.

You'll start receiving severe weather alerts in your inbox..

×

10-Day Weather Forecast

Almanac

Astronomy

Jun. 25, 2017 Rise Set
Actual Time
Civil Twilight
Nautical Twilight
Astronomical Twilight
Moon
Length of Visible Light
Length of Day
Tomorrow will be .
, % of the Moon is Illuminated

Today's Extremes

State Highs State Lows

Community

WunderPhotos

Category 6

Welcome to Category 6. This is the collective home for Weather Underground's featured writeups by Dr. Jeff Masters (right), Bob Henson (left), Chris Burt, and other regular contributors.

Nearby

Air Quality

  Air Quality AQ Index Pollutant
Not available.

Snow Depth

Station Depth Elevation

Earthquake Activity

City Distance Mag. Time & Date
Minimum magnitude displayed is 2.5.

Coastal Water Temperatures

Place Temperature

Stations

Nearby Weather Stations

Station Location Temp. Windchill Dew Point Humidity Wind Precip. Elev Updated Type
                   

Watches & Warnings

Fire Weather Warning
Issued: 1:44 PM PDT Jun. 25, 2017 – National Weather Service

... Red flag warning remains in effect until 11 PM PDT Monday for
abundant lightning on dry fuels...

* impacts: lightning and dry fine fuels will likely result in new
fire starts. Gusty thunderstorm winds could contribute to fire
spread. Initial attack resources could be overwhelmed and
holdover fires are possible.

* Fuels: while heavy fuel moistures may not be conducive to
significant fire growth, finer fuels are dry and may ignite and
carry fire.

* Thunderstorms: scattered over the mountains... isolated to
scattered over the valleys.

* Timing: thunderstorm coverage is expected to be greatest in the
afternoons and evenings.

* Affected area: in northern CA... fire weather zone 280.

* Counties affected: in northern CA... Siskiyou.

* View the hazard area in detail at
http://weather.Gov/Medford/hazard